createdAt,value
2022-08-26T00:02:25.984Z,65.76
2022-08-26T00:04:54.749Z,66.24
2022-08-26T00:07:22.392Z,65.61
2022-08-26T00:09:50.184Z,65.00
2022-08-26T00:12:22.128Z,65.43
2022-08-26T00:14:57.088Z,65.19
2022-08-26T00:17:24.898Z,64.58
2022-08-26T00:19:54.577Z,64.79
2022-08-26T00:22:22.526Z,65.72
2022-08-26T00:24:50.545Z,66.09
2022-08-26T00:27:18.325Z,64.45
2022-08-26T00:29:46.040Z,64.88
2022-08-26T00:32:15.160Z,64.21
2022-08-26T00:34:42.880Z,64.45
2022-08-26T00:37:13.399Z,65.00
2022-08-26T00:39:43.382Z,64.60
2022-08-26T00:42:13.693Z,63.97
2022-08-26T00:48:31.851Z,64.63
2022-08-26T00:51:03.277Z,63.95
2022-08-26T00:53:35.493Z,65.08
2022-08-26T00:56:08.671Z,66.19
2022-08-26T00:58:42.984Z,66.08
2022-08-26T01:09:01.602Z,67.00
2022-08-26T01:11:29.478Z,66.23
2022-08-26T01:13:59.116Z,66.91
2022-08-26T01:16:27.101Z,67.75
2022-08-26T01:26:43.080Z,68.62
2022-08-26T01:29:14.088Z,68.54
2022-08-26T01:31:45.967Z,68.17
2022-08-26T01:41:59.487Z,68.60
2022-08-26T01:48:28.825Z,69.78
2022-08-26T02:06:10.285Z,69.85
2022-08-26T02:08:41.005Z,68.65
2022-08-26T02:11:09.491Z,67.71
2022-08-26T02:13:41.042Z,67.17
2022-08-26T02:16:10.189Z,68.54
2022-08-26T02:18:41.155Z,69.45
2022-08-26T02:21:13.621Z,69.91
2022-08-26T02:23:41.576Z,69.97
2022-08-26T02:26:12.848Z,68.14
2022-08-26T02:28:51.472Z,69.07
2022-08-26T02:31:19.872Z,70.17
2022-08-26T02:33:47.681Z,70.26
2022-08-26T02:40:03.171Z,70.48
2022-08-26T02:46:27.724Z,70.72
2022-08-26T02:48:57.567Z,70.66
2022-08-26T02:51:25.720Z,70.07
2022-08-26T02:53:53.492Z,70.58
2022-08-26T02:56:22.636Z,70.99
2022-08-26T02:58:50.439Z,70.25
2022-08-26T03:01:27.160Z,69.45
2022-08-26T03:03:55.066Z,67.82
2022-08-26T03:06:23.054Z,67.99
2022-08-26T03:08:50.763Z,69.46
2022-08-26T03:11:20.187Z,69.75
2022-08-26T03:13:52.837Z,68.72
2022-08-26T03:16:21.653Z,67.93
2022-08-26T03:18:52.159Z,67.72
2022-08-26T03:21:20.914Z,67.21
2022-08-26T03:23:49.601Z,65.64
2022-08-26T03:26:18.047Z,65.34
2022-08-26T03:28:59.657Z,65.34
2022-08-26T03:31:29.392Z,64.00
2022-08-26T03:33:59.627Z,63.53
2022-08-26T03:36:27.484Z,63.71
2022-08-26T03:38:55.219Z,63.80
2022-08-26T03:41:23.450Z,64.17
2022-08-26T03:47:33.743Z,65.45
2022-08-26T03:50:02.378Z,65.45
2022-08-26T03:56:17.471Z,65.68
2022-08-26T03:58:45.944Z,66.14
2022-08-26T04:01:16.155Z,65.87
2022-08-26T04:04:00.963Z,66.07
2022-08-26T04:06:30.663Z,65.71
2022-08-26T04:09:03.249Z,65.83
2022-08-26T04:11:34.067Z,65.16
2022-08-26T04:38:09.164Z,66.61
2022-08-26T04:40:38.311Z,66.28
2022-08-26T04:43:06.799Z,66.89
2022-08-26T04:45:37.362Z,66.85
2022-08-26T04:48:05.276Z,67.59
2022-08-26T04:50:38.965Z,66.90
2022-08-26T04:53:10.717Z,67.61
2022-08-26T04:55:44.192Z,66.79
2022-08-26T05:02:01.649Z,67.33
2022-08-26T05:04:29.625Z,67.76
2022-08-26T05:07:02.457Z,66.92
2022-08-26T05:09:30.965Z,67.92
2022-08-26T05:11:59.982Z,69.38
2022-08-26T05:14:28.005Z,68.87
2022-08-26T05:16:55.681Z,67.81
2022-08-26T05:23:11.496Z,68.35
2022-08-26T05:25:40.392Z,68.96
2022-08-26T05:28:09.469Z,68.82
2022-08-26T05:30:37.715Z,68.91
2022-08-26T05:33:07.068Z,69.32
2022-08-26T05:35:35.304Z,70.35
2022-08-26T05:38:07.314Z,69.16
2022-08-26T05:40:40.643Z,69.68
2022-08-26T05:43:10.836Z,69.09
2022-08-26T05:45:44.887Z,69.79
2022-08-26T05:48:14.318Z,69.24
2022-08-26T05:50:45.497Z,69.28
2022-08-26T05:53:14.736Z,69.43
2022-08-26T05:55:45.487Z,69.51
2022-08-26T05:58:15.046Z,71.10
2022-08-26T06:00:45.244Z,71.03
2022-08-26T06:03:12.996Z,70.86
2022-08-26T06:05:41.762Z,70.77
2022-08-26T06:19:33.032Z,71.74
2022-08-26T06:22:23.570Z,70.20
2022-08-26T06:25:08.758Z,68.82
2022-08-26T06:27:40.916Z,68.16
2022-08-26T06:30:10.338Z,66.94
2022-08-26T06:32:38.206Z,67.09
2022-08-26T06:35:12.273Z,68.13
2022-08-26T06:37:40.435Z,67.88
2022-08-26T06:40:09.888Z,67.28
2022-08-26T06:46:51.384Z,63.21
2022-08-26T06:49:25.755Z,61.33
2022-08-26T06:51:58.821Z,61.57
2022-08-26T06:54:26.965Z,62.79
2022-08-26T06:56:56.721Z,61.06
2022-08-26T06:59:24.803Z,60.95
2022-08-26T07:01:53.503Z,61.77
2022-08-26T07:04:23.243Z,61.30
2022-08-26T07:06:53.683Z,61.97
2022-08-26T07:09:24.558Z,61.77
2022-08-26T07:11:53.282Z,62.44
2022-08-26T07:14:21.757Z,62.36
2022-08-26T07:16:49.984Z,61.73
2022-08-26T07:19:19.652Z,60.59
2022-08-26T07:21:58.659Z,58.98
2022-08-26T07:24:28.547Z,59.27
2022-08-26T07:34:33.365Z,60.52
2022-08-26T07:37:01.529Z,60.23
2022-08-26T07:39:32.779Z,59.34
2022-08-26T07:42:01.373Z,58.81
2022-08-26T07:44:31.603Z,59.15
2022-08-26T07:46:59.646Z,59.64
2022-08-26T07:49:28.101Z,59.14
2022-08-26T07:51:56.367Z,60.25
2022-08-26T07:54:27.133Z,58.66
2022-08-26T07:56:56.637Z,58.23
2022-08-26T07:59:24.620Z,58.90
2022-08-26T08:01:52.633Z,58.17
2022-08-26T08:04:26.251Z,58.54
2022-08-26T08:06:55.095Z,59.20
2022-08-26T08:09:23.163Z,59.29
2022-08-26T08:11:53.702Z,59.74
2022-08-26T08:19:02.609Z,60.18
2022-08-26T08:21:32.895Z,58.93
2022-08-26T08:24:00.597Z,58.82
2022-08-26T08:34:18.199Z,59.68
2022-08-26T08:36:45.489Z,58.76
2022-08-26T08:39:12.216Z,58.68
2022-08-26T08:41:53.305Z,58.66
2022-08-26T08:44:30.837Z,58.61
2022-08-26T08:47:05.651Z,58.26
2022-08-26T08:52:12.119Z,58.53
2022-08-26T08:54:38.459Z,58.68
2022-08-26T09:05:02.411Z,58.60
2022-08-26T09:07:36.383Z,58.86
2022-08-26T09:10:26.432Z,57.93
2022-08-26T09:12:52.819Z,58.31
2022-08-26T09:15:25.455Z,58.83
2022-08-26T09:27:04.531Z,58.83
2022-08-26T09:29:40.984Z,59.31
2022-08-26T09:32:18.823Z,58.64
2022-08-26T09:34:55.315Z,57.52
2022-08-26T09:37:35.646Z,58.08
2022-08-26T09:51:30.472Z,59.03
2022-08-26T09:53:59.343Z,59.01
2022-08-26T10:13:03.598Z,58.79
2022-08-26T10:15:39.767Z,58.18
2022-08-26T10:18:12.727Z,57.54
2022-08-26T10:20:54.208Z,57.46
2022-08-26T10:23:24.604Z,57.33
2022-08-26T10:25:57.987Z,57.21
2022-08-26T10:28:33.898Z,57.17
2022-08-26T10:37:32.872Z,57.58
2022-08-26T10:40:07.026Z,57.79
2022-08-26T10:42:39.804Z,58.04
2022-08-26T10:45:15.128Z,57.62
2022-08-26T10:47:47.394Z,57.96
2022-08-26T10:50:14.595Z,58.59
2022-08-26T10:52:55.754Z,58.24
2022-08-26T11:03:01.261Z,57.88
2022-08-26T11:05:29.324Z,58.65
2022-08-26T11:08:39.779Z,58.58
2022-08-26T11:11:08.921Z,58.63
2022-08-26T11:14:04.338Z,58.43
2022-08-26T11:16:43.550Z,58.29
2022-08-26T11:19:56.821Z,58.56
2022-08-26T11:26:35.770Z,57.47
2022-08-26T11:29:12.022Z,56.66
2022-08-26T11:31:58.898Z,56.67
2022-08-26T11:34:52.306Z,56.80
2022-08-26T11:39:57.146Z,56.62
2022-08-26T11:42:33.204Z,57.05
2022-08-26T11:48:46.486Z,56.26
2022-08-26T11:51:22.841Z,56.59
2022-08-26T11:53:51.750Z,56.75
2022-08-26T11:56:27.276Z,57.16
2022-08-26T11:59:02.952Z,56.59
2022-08-26T12:01:32.972Z,56.47
2022-08-26T12:04:01.528Z,56.97
2022-08-26T12:06:35.476Z,56.57
2022-08-26T12:12:56.637Z,56.22
2022-08-26T12:15:26.689Z,56.28
2022-08-26T12:17:57.998Z,55.90
2022-08-26T12:24:07.130Z,54.85
2022-08-26T12:26:37.961Z,54.06
2022-08-26T12:29:12.652Z,54.62
2022-08-26T12:31:49.729Z,54.73
2022-08-26T12:34:18.702Z,54.83
2022-08-26T12:40:37.305Z,53.93
2022-08-26T12:46:49.735Z,53.84
2022-08-26T12:49:20.155Z,54.02
2022-08-26T12:51:51.307Z,53.97
2022-08-26T13:09:32.160Z,51.12
2022-08-26T13:12:02.227Z,51.22
2022-08-26T13:14:30.400Z,52.03
2022-08-26T13:16:58.374Z,52.22
2022-08-26T13:19:26.938Z,51.06
2022-08-26T13:26:39.262Z,49.85
2022-08-26T13:33:02.179Z,51.14
2022-08-26T13:35:30.959Z,51.30
2022-08-26T13:37:58.902Z,50.52
2022-08-26T13:45:02.644Z,49.66
2022-08-26T13:47:30.608Z,49.34
2022-08-26T13:50:18.494Z,48.80
2022-08-26T13:52:46.211Z,47.47
2022-08-26T14:06:53.864Z,47.57
2022-08-26T14:09:21.548Z,47.33
2022-08-26T14:11:54.241Z,47.40
2022-08-26T14:37:13.548Z,43.63
2022-08-26T14:39:42.941Z,43.56
2022-08-26T14:42:11.080Z,43.51
2022-08-26T14:44:39.426Z,42.72
2022-08-26T14:47:07.890Z,42.76
2022-08-26T14:53:51.940Z,42.95
2022-08-26T14:56:19.866Z,42.96
2022-08-26T14:58:47.964Z,43.43
2022-08-26T15:01:16.016Z,41.99
2022-08-26T15:03:43.742Z,42.32
2022-08-26T15:06:12.503Z,42.71
2022-08-26T15:08:41.599Z,43.63
2022-08-26T15:26:52.590Z,46.05
2022-08-26T15:29:21.655Z,46.31
2022-08-26T15:31:50.617Z,46.68
2022-08-26T15:34:19.533Z,46.74
2022-08-26T15:36:48.604Z,46.20
2022-08-26T15:39:17.434Z,46.38
2022-08-26T15:41:45.272Z,46.95
2022-08-26T15:44:16.195Z,46.71
2022-08-26T15:46:44.360Z,47.58
2022-08-26T15:49:18.154Z,47.61
2022-08-26T15:51:47.871Z,47.14
2022-08-26T15:54:17.981Z,47.21
2022-08-26T15:56:48.503Z,47.18
2022-08-26T15:59:19.515Z,47.13
2022-08-26T16:01:47.643Z,47.28
2022-08-26T16:04:15.862Z,47.54
2022-08-26T16:06:43.604Z,47.60
2022-08-26T16:09:11.816Z,47.52
2022-08-26T16:11:39.814Z,47.57
2022-08-26T16:14:08.298Z,47.54
2022-08-26T16:20:24.346Z,47.97
2022-08-26T16:22:52.230Z,47.79
2022-08-26T16:25:20.395Z,47.12
2022-08-26T16:32:50.556Z,48.04
2022-08-26T16:35:17.066Z,48.18
2022-08-26T16:37:43.355Z,48.80
2022-08-26T16:40:10.816Z,48.29
2022-08-26T16:42:37.735Z,49.24
2022-08-26T16:45:05.492Z,49.08
2022-08-26T16:47:35.309Z,49.43
2022-08-26T16:50:02.814Z,49.91
2022-08-26T16:57:32.782Z,49.54
2022-08-26T17:00:01.874Z,49.96
